sensor_id;sensor_type;location;lat;lon;timestamp;P1;durP1;ratioP1;P2;durP2;ratioP2
40152;SDS011;26371;56.992;23.912;2022-10-26T00:02:07;16.90;;;7.10;;
40152;SDS011;26371;56.992;23.912;2022-10-26T00:04:36;23.95;;;8.65;;
40152;SDS011;26371;56.992;23.912;2022-10-26T00:07:05;15.40;;;7.07;;
40152;SDS011;26371;56.992;23.912;2022-10-26T00:09:35;14.75;;;7.10;;
40152;SDS011;26371;56.992;23.912;2022-10-26T00:12:04;16.15;;;6.95;;
40152;SDS011;26371;56.992;23.912;2022-10-26T00:14:33;24.02;;;9.20;;
40152;SDS011;26371;56.992;23.912;2022-10-26T00:17:02;18.35;;;8.40;;
40152;SDS011;26371;56.992;23.912;2022-10-26T00:19:31;27.80;;;9.95;;
40152;SDS011;26371;56.992;23.912;2022-10-26T00:22:01;39.05;;;16.60;;
40152;SDS011;26371;56.992;23.912;2022-10-26T00:24:30;36.50;;;14.98;;
40152;SDS011;26371;56.992;23.912;2022-10-26T00:27:00;35.08;;;14.38;;
40152;SDS011;26371;56.992;23.912;2022-10-26T00:29:29;37.25;;;15.15;;
40152;SDS011;26371;56.992;23.912;2022-10-26T00:31:57;32.57;;;13.37;;
40152;SDS011;26371;56.992;23.912;2022-10-26T00:34:26;23.00;;;10.00;;
40152;SDS011;26371;56.992;23.912;2022-10-26T00:36:55;27.35;;;10.55;;
40152;SDS011;26371;56.992;23.912;2022-10-26T00:39:24;21.45;;;9.10;;
40152;SDS011;26371;56.992;23.912;2022-10-26T00:41:53;23.90;;;9.48;;
40152;SDS011;26371;56.992;23.912;2022-10-26T00:47:32;22.77;;;10.23;;
40152;SDS011;26371;56.992;23.912;2022-10-26T00:50:07;25.27;;;11.13;;
40152;SDS011;26371;56.992;23.912;2022-10-26T00:52:38;22.13;;;10.68;;
40152;SDS011;26371;56.992;23.912;2022-10-26T00:55:07;19.23;;;9.82;;
40152;SDS011;26371;56.992;23.912;2022-10-26T00:57:36;33.65;;;12.13;;
40152;SDS011;26371;56.992;23.912;2022-10-26T01:00:08;23.95;;;11.65;;
40152;SDS011;26371;56.992;23.912;2022-10-26T01:02:38;31.38;;;13.13;;
40152;SDS011;26371;56.992;23.912;2022-10-26T01:05:07;25.75;;;12.93;;
40152;SDS011;26371;56.992;23.912;2022-10-26T01:07:36;23.83;;;11.13;;
40152;SDS011;26371;56.992;23.912;2022-10-26T01:10:06;41.25;;;14.55;;
40152;SDS011;26371;56.992;23.912;2022-10-26T01:12:36;31.70;;;13.65;;
40152;SDS011;26371;56.992;23.912;2022-10-26T01:15:05;23.45;;;9.77;;
40152;SDS011;26371;56.992;23.912;2022-10-26T01:17:46;24.88;;;9.80;;
40152;SDS011;26371;56.992;23.912;2022-10-26T01:20:33;31.80;;;12.98;;
40152;SDS011;26371;56.992;23.912;2022-10-26T01:23:25;31.98;;;11.02;;
40152;SDS011;26371;56.992;23.912;2022-10-26T01:29:07;24.80;;;10.02;;
40152;SDS011;26371;56.992;23.912;2022-10-26T01:31:49;36.78;;;11.80;;
40152;SDS011;26371;56.992;23.912;2022-10-26T01:34:27;23.48;;;10.48;;
40152;SDS011;26371;56.992;23.912;2022-10-26T01:37:03;28.58;;;11.23;;
40152;SDS011;26371;56.992;23.912;2022-10-26T01:39:36;24.00;;;11.00;;
40152;SDS011;26371;56.992;23.912;2022-10-26T01:42:08;23.38;;;9.60;;
40152;SDS011;26371;56.992;23.912;2022-10-26T01:44:40;22.00;;;10.75;;
40152;SDS011;26371;56.992;23.912;2022-10-26T01:47:14;25.25;;;11.50;;
40152;SDS011;26371;56.992;23.912;2022-10-26T01:49:45;26.95;;;12.35;;
40152;SDS011;26371;56.992;23.912;2022-10-26T01:52:17;28.83;;;12.98;;
40152;SDS011;26371;56.992;23.912;2022-10-26T01:54:46;21.85;;;10.15;;
40152;SDS011;26371;56.992;23.912;2022-10-26T01:57:15;29.90;;;10.98;;
40152;SDS011;26371;56.992;23.912;2022-10-26T01:59:50;24.70;;;11.52;;
40152;SDS011;26371;56.992;23.912;2022-10-26T02:02:44;27.65;;;10.85;;
40152;SDS011;26371;56.992;23.912;2022-10-26T02:05:44;25.27;;;11.50;;
40152;SDS011;26371;56.992;23.912;2022-10-26T02:11:16;24.90;;;11.38;;
40152;SDS011;26371;56.992;23.912;2022-10-26T02:13:55;25.13;;;12.32;;
40152;SDS011;26371;56.992;23.912;2022-10-26T02:16:30;27.67;;;12.38;;
40152;SDS011;26371;56.992;23.912;2022-10-26T02:19:09;19.83;;;9.45;;
40152;SDS011;26371;56.992;23.912;2022-10-26T02:21:50;33.67;;;13.55;;
40152;SDS011;26371;56.992;23.912;2022-10-26T02:24:22;25.70;;;11.50;;
40152;SDS011;26371;56.992;23.912;2022-10-26T02:26:54;28.08;;;12.60;;
40152;SDS011;26371;56.992;23.912;2022-10-26T02:29:24;23.50;;;10.57;;
40152;SDS011;26371;56.992;23.912;2022-10-26T02:31:56;30.42;;;11.10;;
40152;SDS011;26371;56.992;23.912;2022-10-26T02:34:27;24.85;;;11.00;;
40152;SDS011;26371;56.992;23.912;2022-10-26T02:36:59;25.45;;;12.35;;
40152;SDS011;26371;56.992;23.912;2022-10-26T02:39:31;23.25;;;10.82;;
40152;SDS011;26371;56.992;23.912;2022-10-26T02:42:02;26.35;;;10.32;;
40152;SDS011;26371;56.992;23.912;2022-10-26T02:44:35;24.65;;;11.48;;
40152;SDS011;26371;56.992;23.912;2022-10-26T02:47:09;23.02;;;11.20;;
40152;SDS011;26371;56.992;23.912;2022-10-26T02:52:10;22.05;;;11.25;;
40152;SDS011;26371;56.992;23.912;2022-10-26T02:54:52;29.55;;;12.35;;
40152;SDS011;26371;56.992;23.912;2022-10-26T02:57:28;35.40;;;13.27;;
40152;SDS011;26371;56.992;23.912;2022-10-26T03:00:01;25.65;;;12.25;;
40152;SDS011;26371;56.992;23.912;2022-10-26T03:02:30;27.98;;;12.35;;
40152;SDS011;26371;56.992;23.912;2022-10-26T03:05:08;32.53;;;13.55;;
40152;SDS011;26371;56.992;23.912;2022-10-26T03:07:40;32.08;;;12.82;;
40152;SDS011;26371;56.992;23.912;2022-10-26T03:10:09;22.08;;;11.05;;
40152;SDS011;26371;56.992;23.912;2022-10-26T03:12:38;23.02;;;10.60;;
40152;SDS011;26371;56.992;23.912;2022-10-26T03:15:07;22.48;;;11.35;;
40152;SDS011;26371;56.992;23.912;2022-10-26T03:17:37;22.35;;;12.23;;
40152;SDS011;26371;56.992;23.912;2022-10-26T03:20:09;43.17;;;22.00;;
40152;SDS011;26371;56.992;23.912;2022-10-26T03:22:39;23.92;;;12.10;;
40152;SDS011;26371;56.992;23.912;2022-10-26T03:25:07;23.63;;;11.65;;
40152;SDS011;26371;56.992;23.912;2022-10-26T03:27:36;25.92;;;12.75;;
40152;SDS011;26371;56.992;23.912;2022-10-26T03:30:06;23.67;;;12.50;;
40152;SDS011;26371;56.992;23.912;2022-10-26T03:32:35;21.20;;;10.55;;
40152;SDS011;26371;56.992;23.912;2022-10-26T03:37:35;26.67;;;11.95;;
40152;SDS011;26371;56.992;23.912;2022-10-26T03:40:04;41.22;;;18.00;;
40152;SDS011;26371;56.992;23.912;2022-10-26T03:42:34;26.50;;;12.75;;
40152;SDS011;26371;56.992;23.912;2022-10-26T03:45:04;31.55;;;13.57;;
40152;SDS011;26371;56.992;23.912;2022-10-26T03:47:39;24.10;;;11.85;;
40152;SDS011;26371;56.992;23.912;2022-10-26T03:50:10;25.27;;;11.82;;
40152;SDS011;26371;56.992;23.912;2022-10-26T03:52:42;21.52;;;10.18;;
40152;SDS011;26371;56.992;23.912;2022-10-26T03:55:11;21.52;;;10.98;;
40152;SDS011;26371;56.992;23.912;2022-10-26T03:57:40;31.38;;;12.90;;
40152;SDS011;26371;56.992;23.912;2022-10-26T04:00:09;27.55;;;13.02;;
40152;SDS011;26371;56.992;23.912;2022-10-26T04:02:41;29.58;;;12.25;;
40152;SDS011;26371;56.992;23.912;2022-10-26T04:05:12;25.05;;;12.73;;
40152;SDS011;26371;56.992;23.912;2022-10-26T04:07:43;27.80;;;12.65;;
40152;SDS011;26371;56.992;23.912;2022-10-26T04:10:19;27.00;;;12.38;;
40152;SDS011;26371;56.992;23.912;2022-10-26T04:12:48;29.80;;;14.32;;
40152;SDS011;26371;56.992;23.912;2022-10-26T04:15:17;30.15;;;13.93;;
40152;SDS011;26371;56.992;23.912;2022-10-26T04:17:47;31.65;;;14.65;;
40152;SDS011;26371;56.992;23.912;2022-10-26T04:20:16;29.90;;;13.93;;
40152;SDS011;26371;56.992;23.912;2022-10-26T04:22:46;37.55;;;15.85;;
40152;SDS011;26371;56.992;23.912;2022-10-26T04:25:15;32.47;;;14.77;;
40152;SDS011;26371;56.992;23.912;2022-10-26T04:27:44;27.58;;;12.75;;
40152;SDS011;26371;56.992;23.912;2022-10-26T04:32:42;31.20;;;12.27;;
40152;SDS011;26371;56.992;23.912;2022-10-26T04:35:29;36.70;;;17.33;;
40152;SDS011;26371;56.992;23.912;2022-10-26T04:38:01;22.05;;;10.85;;
40152;SDS011;26371;56.992;23.912;2022-10-26T04:40:31;28.13;;;12.82;;
40152;SDS011;26371;56.992;23.912;2022-10-26T04:43:00;30.88;;;12.68;;
40152;SDS011;26371;56.992;23.912;2022-10-26T04:45:30;27.80;;;13.48;;
40152;SDS011;26371;56.992;23.912;2022-10-26T04:47:59;27.17;;;13.00;;
40152;SDS011;26371;56.992;23.912;2022-10-26T04:50:29;27.33;;;11.93;;
40152;SDS011;26371;56.992;23.912;2022-10-26T04:53:03;26.88;;;12.07;;
40152;SDS011;26371;56.992;23.912;2022-10-26T04:55:32;26.00;;;12.27;;
40152;SDS011;26371;56.992;23.912;2022-10-26T04:58:01;25.33;;;12.63;;
40152;SDS011;26371;56.992;23.912;2022-10-26T05:00:30;30.10;;;11.82;;
40152;SDS011;26371;56.992;23.912;2022-10-26T05:02:59;34.05;;;12.82;;
40152;SDS011;26371;56.992;23.912;2022-10-26T05:05:29;34.45;;;13.85;;
40152;SDS011;26371;56.992;23.912;2022-10-26T05:07:59;25.98;;;12.60;;
40152;SDS011;26371;56.992;23.912;2022-10-26T05:10:29;29.17;;;12.20;;
40152;SDS011;26371;56.992;23.912;2022-10-26T05:12:59;23.63;;;11.85;;
40152;SDS011;26371;56.992;23.912;2022-10-26T05:15:28;22.98;;;12.00;;
40152;SDS011;26371;56.992;23.912;2022-10-26T05:17:57;22.95;;;10.98;;
40152;SDS011;26371;56.992;23.912;2022-10-26T05:20:29;27.98;;;10.73;;
40152;SDS011;26371;56.992;23.912;2022-10-26T05:22:59;24.38;;;11.07;;
40152;SDS011;26371;56.992;23.912;2022-10-26T05:25:32;28.42;;;10.82;;
40152;SDS011;26371;56.992;23.912;2022-10-26T05:28:03;23.08;;;10.52;;
40152;SDS011;26371;56.992;23.912;2022-10-26T05:30:35;25.75;;;11.75;;
40152;SDS011;26371;56.992;23.912;2022-10-26T05:33:04;26.90;;;10.90;;
40152;SDS011;26371;56.992;23.912;2022-10-26T05:38:05;21.52;;;10.40;;
40152;SDS011;26371;56.992;23.912;2022-10-26T05:40:36;25.20;;;10.52;;
40152;SDS011;26371;56.992;23.912;2022-10-26T05:43:05;25.77;;;11.75;;
40152;SDS011;26371;56.992;23.912;2022-10-26T05:45:35;27.38;;;11.57;;
40152;SDS011;26371;56.992;23.912;2022-10-26T05:48:04;25.13;;;10.98;;
40152;SDS011;26371;56.992;23.912;2022-10-26T05:50:33;21.33;;;10.00;;
40152;SDS011;26371;56.992;23.912;2022-10-26T05:53:02;24.30;;;9.50;;
40152;SDS011;26371;56.992;23.912;2022-10-26T05:55:32;22.17;;;9.55;;
40152;SDS011;26371;56.992;23.912;2022-10-26T05:58:10;17.90;;;8.63;;
40152;SDS011;26371;56.992;23.912;2022-10-26T06:00:43;27.77;;;12.80;;
40152;SDS011;26371;56.992;23.912;2022-10-26T06:03:25;17.75;;;7.95;;
40152;SDS011;26371;56.992;23.912;2022-10-26T06:06:01;19.15;;;8.20;;
40152;SDS011;26371;56.992;23.912;2022-10-26T06:08:33;18.02;;;8.32;;
40152;SDS011;26371;56.992;23.912;2022-10-26T06:11:02;21.08;;;8.48;;
40152;SDS011;26371;56.992;23.912;2022-10-26T06:13:34;14.80;;;7.93;;
40152;SDS011;26371;56.992;23.912;2022-10-26T06:16:30;28.90;;;9.25;;
40152;SDS011;26371;56.992;23.912;2022-10-26T06:19:10;18.52;;;6.80;;
40152;SDS011;26371;56.992;23.912;2022-10-26T06:21:56;17.55;;;6.32;;
40152;SDS011;26371;56.992;23.912;2022-10-26T06:24:39;19.05;;;7.07;;
40152;SDS011;26371;56.992;23.912;2022-10-26T06:27:16;17.58;;;6.00;;
40152;SDS011;26371;56.992;23.912;2022-10-26T06:29:55;16.25;;;5.88;;
40152;SDS011;26371;56.992;23.912;2022-10-26T06:32:27;15.05;;;5.82;;
40152;SDS011;26371;56.992;23.912;2022-10-26T06:34:58;12.60;;;5.20;;
40152;SDS011;26371;56.992;23.912;2022-10-26T06:37:40;23.33;;;5.53;;
40152;SDS011;26371;56.992;23.912;2022-10-26T06:40:12;11.23;;;5.35;;
40152;SDS011;26371;56.992;23.912;2022-10-26T06:42:52;17.33;;;6.28;;
40152;SDS011;26371;56.992;23.912;2022-10-26T06:45:40;20.30;;;4.65;;
40152;SDS011;26371;56.992;23.912;2022-10-26T06:48:26;19.80;;;5.30;;
40152;SDS011;26371;56.992;23.912;2022-10-26T06:51:37;18.83;;;5.70;;
40152;SDS011;26371;56.992;23.912;2022-10-26T06:54:14;18.55;;;4.95;;
40152;SDS011;26371;56.992;23.912;2022-10-26T06:56:50;15.02;;;4.93;;
40152;SDS011;26371;56.992;23.912;2022-10-26T06:59:24;13.63;;;5.18;;
40152;SDS011;26371;56.992;23.912;2022-10-26T07:02:03;19.98;;;6.43;;
40152;SDS011;26371;56.992;23.912;2022-10-26T07:04:35;12.73;;;4.65;;
40152;SDS011;26371;56.992;23.912;2022-10-26T07:07:04;11.57;;;5.15;;
40152;SDS011;26371;56.992;23.912;2022-10-26T07:12:02;16.73;;;5.70;;
40152;SDS011;26371;56.992;23.912;2022-10-26T07:17:00;17.08;;;5.25;;
40152;SDS011;26371;56.992;23.912;2022-10-26T07:19:31;15.48;;;4.68;;
40152;SDS011;26371;56.992;23.912;2022-10-26T07:22:00;15.43;;;5.18;;
40152;SDS011;26371;56.992;23.912;2022-10-26T07:24:32;14.55;;;5.07;;
40152;SDS011;26371;56.992;23.912;2022-10-26T07:27:01;18.13;;;5.05;;
40152;SDS011;26371;56.992;23.912;2022-10-26T07:29:29;18.00;;;6.70;;
40152;SDS011;26371;56.992;23.912;2022-10-26T07:34:29;11.70;;;5.23;;
40152;SDS011;26371;56.992;23.912;2022-10-26T07:37:07;16.55;;;5.47;;
40152;SDS011;26371;56.992;23.912;2022-10-26T07:39:43;11.13;;;4.63;;
40152;SDS011;26371;56.992;23.912;2022-10-26T07:42:17;15.55;;;5.70;;
40152;SDS011;26371;56.992;23.912;2022-10-26T07:44:47;12.88;;;4.97;;
40152;SDS011;26371;56.992;23.912;2022-10-26T07:47:25;19.30;;;5.65;;
40152;SDS011;26371;56.992;23.912;2022-10-26T07:49:57;13.52;;;5.00;;
40152;SDS011;26371;56.992;23.912;2022-10-26T07:52:29;18.13;;;5.47;;
40152;SDS011;26371;56.992;23.912;2022-10-26T07:54:58;17.13;;;5.22;;
40152;SDS011;26371;56.992;23.912;2022-10-26T07:57:30;13.45;;;4.57;;
40152;SDS011;26371;56.992;23.912;2022-10-26T07:59:59;18.35;;;5.15;;
40152;SDS011;26371;56.992;23.912;2022-10-26T08:02:32;14.90;;;5.15;;
40152;SDS011;26371;56.992;23.912;2022-10-26T08:05:02;18.45;;;5.13;;
40152;SDS011;26371;56.992;23.912;2022-10-26T08:07:32;20.98;;;5.47;;
40152;SDS011;26371;56.992;23.912;2022-10-26T08:10:08;20.13;;;5.40;;
40152;SDS011;26371;56.992;23.912;2022-10-26T08:12:38;20.13;;;5.30;;
40152;SDS011;26371;56.992;23.912;2022-10-26T08:15:10;15.20;;;4.93;;
40152;SDS011;26371;56.992;23.912;2022-10-26T08:17:39;14.82;;;5.78;;
40152;SDS011;26371;56.992;23.912;2022-10-26T08:20:10;9.75;;;4.97;;
40152;SDS011;26371;56.992;23.912;2022-10-26T08:22:39;18.52;;;5.07;;
40152;SDS011;26371;56.992;23.912;2022-10-26T08:25:18;19.27;;;5.45;;
40152;SDS011;26371;56.992;23.912;2022-10-26T08:27:47;15.43;;;4.68;;
40152;SDS011;26371;56.992;23.912;2022-10-26T08:30:17;18.55;;;5.32;;
40152;SDS011;26371;56.992;23.912;2022-10-26T08:32:56;19.33;;;5.07;;
40152;SDS011;26371;56.992;23.912;2022-10-26T08:35:31;14.82;;;4.82;;
40152;SDS011;26371;56.992;23.912;2022-10-26T08:38:03;17.92;;;5.50;;
40152;SDS011;26371;56.992;23.912;2022-10-26T08:40:36;15.15;;;4.75;;
40152;SDS011;26371;56.992;23.912;2022-10-26T08:43:10;22.83;;;5.22;;
40152;SDS011;26371;56.992;23.912;2022-10-26T08:45:46;18.42;;;4.57;;
40152;SDS011;26371;56.992;23.912;2022-10-26T08:48:20;14.98;;;4.95;;
40152;SDS011;26371;56.992;23.912;2022-10-26T08:50:57;12.18;;;4.95;;
40152;SDS011;26371;56.992;23.912;2022-10-26T08:53:31;16.33;;;4.57;;
40152;SDS011;26371;56.992;23.912;2022-10-26T08:56:09;12.57;;;4.47;;
40152;SDS011;26371;56.992;23.912;2022-10-26T08:58:44;16.00;;;4.80;;
40152;SDS011;26371;56.992;23.912;2022-10-26T09:01:17;16.77;;;4.93;;
40152;SDS011;26371;56.992;23.912;2022-10-26T09:06:20;15.77;;;4.78;;
40152;SDS011;26371;56.992;23.912;2022-10-26T09:08:57;16.52;;;5.47;;
40152;SDS011;26371;56.992;23.912;2022-10-26T09:11:39;16.42;;;5.00;;
40152;SDS011;26371;56.992;23.912;2022-10-26T09:14:23;14.07;;;5.32;;
40152;SDS011;26371;56.992;23.912;2022-10-26T09:17:07;21.23;;;6.57;;
40152;SDS011;26371;56.992;23.912;2022-10-26T09:19:50;21.63;;;6.35;;
40152;SDS011;26371;56.992;23.912;2022-10-26T09:22:35;23.50;;;6.60;;
40152;SDS011;26371;56.992;23.912;2022-10-26T09:25:12;15.85;;;6.15;;
40152;SDS011;26371;56.992;23.912;2022-10-26T09:27:46;17.30;;;6.22;;
40152;SDS011;26371;56.992;23.912;2022-10-26T09:30:20;18.40;;;6.70;;
40152;SDS011;26371;56.992;23.912;2022-10-26T09:32:52;16.40;;;6.43;;
40152;SDS011;26371;56.992;23.912;2022-10-26T09:35:25;22.63;;;7.47;;
40152;SDS011;26371;56.992;23.912;2022-10-26T09:37:58;19.67;;;7.45;;
40152;SDS011;26371;56.992;23.912;2022-10-26T09:40:44;18.92;;;7.13;;
40152;SDS011;26371;56.992;23.912;2022-10-26T09:43:22;21.13;;;7.03;;
40152;SDS011;26371;56.992;23.912;2022-10-26T09:45:55;15.55;;;6.47;;
40152;SDS011;26371;56.992;23.912;2022-10-26T09:48:26;23.95;;;7.78;;
40152;SDS011;26371;56.992;23.912;2022-10-26T09:51:00;19.98;;;6.45;;
40152;SDS011;26371;56.992;23.912;2022-10-26T09:53:32;14.43;;;6.55;;
40152;SDS011;26371;56.992;23.912;2022-10-26T09:56:06;22.17;;;6.68;;
40152;SDS011;26371;56.992;23.912;2022-10-26T09:58:39;11.82;;;5.63;;
40152;SDS011;26371;56.992;23.912;2022-10-26T10:01:20;16.30;;;7.53;;
40152;SDS011;26371;56.992;23.912;2022-10-26T10:04:08;21.83;;;7.10;;
40152;SDS011;26371;56.992;23.912;2022-10-26T10:06:43;14.27;;;6.32;;
40152;SDS011;26371;56.992;23.912;2022-10-26T10:09:16;16.98;;;6.35;;
40152;SDS011;26371;56.992;23.912;2022-10-26T10:11:52;18.48;;;5.78;;
40152;SDS011;26371;56.992;23.912;2022-10-26T10:14:24;19.13;;;5.57;;
40152;SDS011;26371;56.992;23.912;2022-10-26T10:16:54;14.27;;;4.95;;
40152;SDS011;26371;56.992;23.912;2022-10-26T10:19:28;18.17;;;4.85;;
40152;SDS011;26371;56.992;23.912;2022-10-26T10:22:08;16.65;;;4.28;;
40152;SDS011;26371;56.992;23.912;2022-10-26T10:25:01;17.08;;;5.15;;
40152;SDS011;26371;56.992;23.912;2022-10-26T10:27:37;17.63;;;4.35;;
40152;SDS011;26371;56.992;23.912;2022-10-26T10:30:23;12.15;;;3.50;;
40152;SDS011;26371;56.992;23.912;2022-10-26T10:33:06;9.05;;;3.50;;
40152;SDS011;26371;56.992;23.912;2022-10-26T10:35:45;11.60;;;3.55;;
40152;SDS011;26371;56.992;23.912;2022-10-26T10:38:21;13.55;;;3.20;;
40152;SDS011;26371;56.992;23.912;2022-10-26T10:40:55;9.90;;;3.33;;
40152;SDS011;26371;56.992;23.912;2022-10-26T10:43:28;10.68;;;3.13;;
40152;SDS011;26371;56.992;23.912;2022-10-26T10:51:17;11.13;;;2.90;;
40152;SDS011;26371;56.992;23.912;2022-10-26T10:53:49;9.98;;;3.25;;
40152;SDS011;26371;56.992;23.912;2022-10-26T10:56:26;10.68;;;2.90;;
40152;SDS011;26371;56.992;23.912;2022-10-26T10:59:07;10.40;;;2.72;;
40152;SDS011;26371;56.992;23.912;2022-10-26T11:02:15;13.13;;;3.00;;
40152;SDS011;26371;56.992;23.912;2022-10-26T11:05:20;10.55;;;2.85;;
40152;SDS011;26371;56.992;23.912;2022-10-26T11:07:56;8.40;;;2.53;;
40152;SDS011;26371;56.992;23.912;2022-10-26T11:10:35;10.85;;;2.63;;
40152;SDS011;26371;56.992;23.912;2022-10-26T11:13:14;7.90;;;2.38;;
40152;SDS011;26371;56.992;23.912;2022-10-26T11:15:49;10.23;;;2.90;;
40152;SDS011;26371;56.992;23.912;2022-10-26T11:18:24;13.13;;;2.80;;
40152;SDS011;26371;56.992;23.912;2022-10-26T11:21:00;10.35;;;3.10;;
40152;SDS011;26371;56.992;23.912;2022-10-26T11:23:37;8.10;;;2.70;;
40152;SDS011;26371;56.992;23.912;2022-10-26T11:26:16;10.07;;;2.92;;
40152;SDS011;26371;56.992;23.912;2022-10-26T11:28:55;13.63;;;2.80;;
40152;SDS011;26371;56.992;23.912;2022-10-26T11:31:35;5.70;;;2.67;;
40152;SDS011;26371;56.992;23.912;2022-10-26T11:34:14;9.85;;;2.72;;
40152;SDS011;26371;56.992;23.912;2022-10-26T11:36:52;12.10;;;2.60;;
40152;SDS011;26371;56.992;23.912;2022-10-26T11:39:27;10.75;;;2.78;;
40152;SDS011;26371;56.992;23.912;2022-10-26T11:42:05;11.00;;;3.22;;
40152;SDS011;26371;56.992;23.912;2022-10-26T11:45:03;8.90;;;2.70;;
40152;SDS011;26371;56.992;23.912;2022-10-26T11:47:52;11.02;;;2.65;;
40152;SDS011;26371;56.992;23.912;2022-10-26T11:50:32;6.97;;;2.60;;
40152;SDS011;26371;56.992;23.912;2022-10-26T11:53:08;9.90;;;2.58;;
40152;SDS011;26371;56.992;23.912;2022-10-26T11:56:01;10.55;;;2.92;;
40152;SDS011;26371;56.992;23.912;2022-10-26T11:58:36;11.70;;;2.80;;
40152;SDS011;26371;56.992;23.912;2022-10-26T12:01:11;13.00;;;3.10;;
40152;SDS011;26371;56.992;23.912;2022-10-26T12:03:43;12.27;;;2.88;;
40152;SDS011;26371;56.992;23.912;2022-10-26T12:06:17;10.55;;;3.10;;
40152;SDS011;26371;56.992;23.912;2022-10-26T12:08:50;11.15;;;3.05;;
40152;SDS011;26371;56.992;23.912;2022-10-26T12:11:37;11.60;;;3.05;;
40152;SDS011;26371;56.992;23.912;2022-10-26T12:14:18;7.78;;;2.38;;
40152;SDS011;26371;56.992;23.912;2022-10-26T12:16:55;10.13;;;2.67;;
40152;SDS011;26371;56.992;23.912;2022-10-26T12:19:30;9.80;;;2.60;;
40152;SDS011;26371;56.992;23.912;2022-10-26T12:22:07;9.45;;;3.17;;
40152;SDS011;26371;56.992;23.912;2022-10-26T12:24:42;11.40;;;2.88;;
40152;SDS011;26371;56.992;23.912;2022-10-26T12:27:31;12.45;;;3.20;;
40152;SDS011;26371;56.992;23.912;2022-10-26T12:30:26;11.60;;;3.20;;
40152;SDS011;26371;56.992;23.912;2022-10-26T12:32:58;11.27;;;4.43;;
40152;SDS011;26371;56.992;23.912;2022-10-26T12:35:29;9.63;;;2.70;;
40152;SDS011;26371;56.992;23.912;2022-10-26T12:41:37;13.38;;;2.95;;
40152;SDS011;26371;56.992;23.912;2022-10-26T12:44:33;7.45;;;3.53;;
40152;SDS011;26371;56.992;23.912;2022-10-26T12:47:06;7.32;;;2.58;;
40152;SDS011;26371;56.992;23.912;2022-10-26T12:52:52;11.00;;;2.58;;
40152;SDS011;26371;56.992;23.912;2022-10-26T13:08:10;6.63;;;2.45;;
40152;SDS011;26371;56.992;23.912;2022-10-26T13:10:58;8.23;;;2.28;;
40152;SDS011;26371;56.992;23.912;2022-10-26T13:16:02;7.38;;;2.25;;
40152;SDS011;26371;56.992;23.912;2022-10-26T13:18:35;4.68;;;2.15;;
40152;SDS011;26371;56.992;23.912;2022-10-26T13:21:11;5.85;;;1.90;;
40152;SDS011;26371;56.992;23.912;2022-10-26T13:23:43;6.70;;;1.70;;
40152;SDS011;26371;56.992;23.912;2022-10-26T13:26:15;5.43;;;2.00;;
40152;SDS011;26371;56.992;23.912;2022-10-26T13:28:51;7.43;;;2.03;;
40152;SDS011;26371;56.992;23.912;2022-10-26T13:34:26;6.25;;;3.15;;
40152;SDS011;26371;56.992;23.912;2022-10-26T13:37:11;9.40;;;3.15;;
40152;SDS011;26371;56.992;23.912;2022-10-26T13:39:49;4.80;;;1.17;;
40152;SDS011;26371;56.992;23.912;2022-10-26T13:42:23;2.60;;;0.82;;
40152;SDS011;26371;56.992;23.912;2022-10-26T13:44:54;6.28;;;1.10;;
40152;SDS011;26371;56.992;23.912;2022-10-26T13:47:28;1.85;;;0.95;;
40152;SDS011;26371;56.992;23.912;2022-10-26T13:50:07;4.82;;;1.10;;
40152;SDS011;26371;56.992;23.912;2022-10-26T13:52:49;4.30;;;1.10;;
40152;SDS011;26371;56.992;23.912;2022-10-26T13:55:22;3.85;;;0.88;;
40152;SDS011;26371;56.992;23.912;2022-10-26T13:58:04;5.63;;;1.10;;
40152;SDS011;26371;56.992;23.912;2022-10-26T14:01:02;4.53;;;1.00;;
40152;SDS011;26371;56.992;23.912;2022-10-26T14:03:39;4.82;;;0.82;;
40152;SDS011;26371;56.992;23.912;2022-10-26T14:06:11;4.18;;;1.00;;
40152;SDS011;26371;56.992;23.912;2022-10-26T14:08:46;4.32;;;0.82;;
40152;SDS011;26371;56.992;23.912;2022-10-26T14:11:18;3.42;;;0.90;;
40152;SDS011;26371;56.992;23.912;2022-10-26T14:13:50;3.42;;;1.27;;
40152;SDS011;26371;56.992;23.912;2022-10-26T14:16:22;2.33;;;0.50;;
40152;SDS011;26371;56.992;23.912;2022-10-26T14:18:54;3.42;;;0.90;;
40152;SDS011;26371;56.992;23.912;2022-10-26T14:21:26;4.13;;;0.80;;
40152;SDS011;26371;56.992;23.912;2022-10-26T14:23:57;3.08;;;0.70;;
40152;SDS011;26371;56.992;23.912;2022-10-26T14:26:36;3.00;;;0.68;;
40152;SDS011;26371;56.992;23.912;2022-10-26T14:29:13;5.78;;;0.88;;
40152;SDS011;26371;56.992;23.912;2022-10-26T14:31:44;4.32;;;0.80;;
40152;SDS011;26371;56.992;23.912;2022-10-26T14:34:16;3.63;;;0.70;;
40152;SDS011;26371;56.992;23.912;2022-10-26T14:36:47;7.78;;;1.20;;
40152;SDS011;26371;56.992;23.912;2022-10-26T14:39:24;3.55;;;1.15;;
40152;SDS011;26371;56.992;23.912;2022-10-26T14:42:02;5.75;;;2.22;;
40152;SDS011;26371;56.992;23.912;2022-10-26T14:44:37;5.10;;;0.85;;
40152;SDS011;26371;56.992;23.912;2022-10-26T14:47:13;5.15;;;0.90;;
40152;SDS011;26371;56.992;23.912;2022-10-26T14:49:50;8.43;;;1.25;;
40152;SDS011;26371;56.992;23.912;2022-10-26T14:52:23;3.33;;;1.08;;
40152;SDS011;26371;56.992;23.912;2022-10-26T14:55:09;6.68;;;1.15;;
40152;SDS011;26371;56.992;23.912;2022-10-26T14:57:44;4.38;;;1.23;;
40152;SDS011;26371;56.992;23.912;2022-10-26T15:00:18;2.47;;;0.90;;
40152;SDS011;26371;56.992;23.912;2022-10-26T15:02:49;6.72;;;1.45;;
40152;SDS011;26371;56.992;23.912;2022-10-26T15:05:24;3.35;;;1.00;;
40152;SDS011;26371;56.992;23.912;2022-10-26T15:08:01;4.85;;;1.15;;
40152;SDS011;26371;56.992;23.912;2022-10-26T15:10:49;4.20;;;1.23;;
40152;SDS011;26371;56.992;23.912;2022-10-26T15:13:19;4.93;;;1.00;;
40152;SDS011;26371;56.992;23.912;2022-10-26T15:15:56;4.72;;;0.80;;
40152;SDS011;26371;56.992;23.912;2022-10-26T15:18:35;3.25;;;1.20;;
40152;SDS011;26371;56.992;23.912;2022-10-26T15:21:15;3.92;;;0.82;;
40152;SDS011;26371;56.992;23.912;2022-10-26T15:23:53;4.82;;;1.15;;
40152;SDS011;26371;56.992;23.912;2022-10-26T15:26:25;5.50;;;1.17;;
40152;SDS011;26371;56.992;23.912;2022-10-26T15:28:55;6.35;;;1.52;;
40152;SDS011;26371;56.992;23.912;2022-10-26T15:31:28;6.10;;;1.30;;
40152;SDS011;26371;56.992;23.912;2022-10-26T15:34:11;6.10;;;1.38;;
40152;SDS011;26371;56.992;23.912;2022-10-26T15:36:41;3.83;;;0.95;;
40152;SDS011;26371;56.992;23.912;2022-10-26T15:39:12;6.00;;;1.10;;
40152;SDS011;26371;56.992;23.912;2022-10-26T15:41:46;5.88;;;1.05;;
40152;SDS011;26371;56.992;23.912;2022-10-26T15:44:19;5.35;;;1.05;;
40152;SDS011;26371;56.992;23.912;2022-10-26T15:46:49;3.85;;;0.85;;
40152;SDS011;26371;56.992;23.912;2022-10-26T15:49:18;5.10;;;0.98;;
40152;SDS011;26371;56.992;23.912;2022-10-26T15:51:48;4.88;;;0.98;;
40152;SDS011;26371;56.992;23.912;2022-10-26T15:54:22;6.78;;;1.23;;
40152;SDS011;26371;56.992;23.912;2022-10-26T15:56:55;7.13;;;1.00;;
40152;SDS011;26371;56.992;23.912;2022-10-26T15:59:27;4.95;;;1.13;;
40152;SDS011;26371;56.992;23.912;2022-10-26T16:01:57;4.00;;;1.20;;
40152;SDS011;26371;56.992;23.912;2022-10-26T16:04:31;9.52;;;2.47;;